createdAt,value
2018-07-05T00:00:52.785Z,55.90
2018-07-05T00:01:24.552Z,55.40
2018-07-05T00:01:56.254Z,55.80
2018-07-05T00:02:27.986Z,55.80
2018-07-05T00:02:59.784Z,55.80
2018-07-05T00:03:31.544Z,55.80
2018-07-05T00:04:03.297Z,55.50
2018-07-05T00:04:35.018Z,55.90
2018-07-05T00:05:06.811Z,55.90
2018-07-05T00:05:38.730Z,55.90
2018-07-05T00:06:10.498Z,55.90
2018-07-05T00:06:42.205Z,55.80
2018-07-05T00:07:13.929Z,55.90
2018-07-05T00:07:45.655Z,55.90
2018-07-05T00:08:17.385Z,55.80
2018-07-05T00:08:49.116Z,55.80
2018-07-05T00:09:20.847Z,55.80
2018-07-05T00:09:52.581Z,55.80
2018-07-05T00:10:24.374Z,55.90
2018-07-05T00:10:56.119Z,55.90
2018-07-05T00:11:27.856Z,55.80
2018-07-05T00:11:59.583Z,55.80
2018-07-05T00:12:31.317Z,55.90
2018-07-05T00:13:03.042Z,55.80
2018-07-05T00:13:34.787Z,55.80
2018-07-05T00:14:06.645Z,55.80
2018-07-05T00:14:38.367Z,55.90
2018-07-05T00:15:10.123Z,55.90
2018-07-05T00:15:41.858Z,56.60
2018-07-05T00:16:13.595Z,55.90
2018-07-05T00:16:45.509Z,55.90
2018-07-05T00:17:17.253Z,56.00
2018-07-05T00:17:48.974Z,56.00
2018-07-05T00:18:20.695Z,56.00
2018-07-05T00:18:52.426Z,55.90
2018-07-05T00:19:24.153Z,55.90
2018-07-05T00:19:55.888Z,56.00
2018-07-05T00:20:27.639Z,55.80
2018-07-05T00:20:59.375Z,55.90
2018-07-05T00:21:31.109Z,55.90
2018-07-05T00:22:02.849Z,55.80
2018-07-05T00:22:34.596Z,55.80
2018-07-05T00:23:06.602Z,55.90
2018-07-05T00:24:10.372Z,56.00
2018-07-05T00:24:42.082Z,55.90
2018-07-05T00:25:13.815Z,55.90
2018-07-05T00:25:45.542Z,55.80
2018-07-05T00:26:17.274Z,55.80
2018-07-05T00:26:49.001Z,55.80
2018-07-05T00:27:20.730Z,55.80
2018-07-05T00:27:52.497Z,55.90
2018-07-05T00:28:24.250Z,55.80
2018-07-05T00:28:55.986Z,55.80
2018-07-05T00:29:27.723Z,55.80
2018-07-05T00:29:59.454Z,55.80
2018-07-05T00:30:31.202Z,55.90
2018-07-05T00:31:02.928Z,55.90
2018-07-05T00:31:34.660Z,55.90
2018-07-05T00:32:06.391Z,55.90
2018-07-05T00:32:38.113Z,55.90
2018-07-05T00:33:09.850Z,55.90
2018-07-05T00:33:41.573Z,55.90
2018-07-05T00:34:13.312Z,55.90
2018-07-05T00:34:45.035Z,55.80
2018-07-05T00:35:16.757Z,55.80
2018-07-05T00:35:48.493Z,55.80
2018-07-05T00:36:20.231Z,55.80
2018-07-05T00:36:51.955Z,55.70
2018-07-05T00:37:23.730Z,55.80
2018-07-05T00:37:55.443Z,55.70
2018-07-05T00:38:27.169Z,55.70
2018-07-05T00:38:58.914Z,55.90
2018-07-05T00:39:30.635Z,56.40
2018-07-05T00:40:02.351Z,56.20
2018-07-05T00:40:34.121Z,55.90
2018-07-05T00:41:05.857Z,55.80
2018-07-05T00:41:37.630Z,55.80
2018-07-05T00:42:09.425Z,55.90
2018-07-05T00:42:41.117Z,55.70
2018-07-05T00:43:12.839Z,55.70
2018-07-05T00:43:44.635Z,55.70
2018-07-05T00:44:16.359Z,55.70
2018-07-05T00:44:48.094Z,55.70
2018-07-05T00:45:20.103Z,55.70
2018-07-05T00:45:51.826Z,55.70
2018-07-05T00:46:23.555Z,55.50
2018-07-05T00:46:55.327Z,55.50
2018-07-05T00:47:27.338Z,55.60
2018-07-05T00:47:59.072Z,55.60
2018-07-05T00:48:30.791Z,55.60
2018-07-05T00:49:02.553Z,55.50
2018-07-05T00:49:34.467Z,55.50
2018-07-05T00:50:06.204Z,55.50
2018-07-05T00:50:37.942Z,55.50
2018-07-05T00:51:09.699Z,55.60
2018-07-05T00:51:41.422Z,55.60
2018-07-05T00:52:13.165Z,55.60
2018-07-05T00:52:44.910Z,55.50
2018-07-05T00:53:16.642Z,55.50
2018-07-05T00:53:48.377Z,55.60
2018-07-05T00:54:20.095Z,55.60
2018-07-05T00:54:51.818Z,56.30
2018-07-05T00:55:23.547Z,55.70
2018-07-05T00:55:55.270Z,55.70
2018-07-05T00:56:27.029Z,55.80
2018-07-05T00:56:58.760Z,55.80
2018-07-05T00:57:30.478Z,55.70
2018-07-05T00:58:02.217Z,55.80
2018-07-05T00:58:33.934Z,55.80
2018-07-05T00:59:05.654Z,55.70
2018-07-05T00:59:37.387Z,55.70
2018-07-05T01:00:09.110Z,55.70
2018-07-05T01:00:40.837Z,55.60
2018-07-05T01:01:12.575Z,55.70
2018-07-05T01:01:44.497Z,55.60
2018-07-05T01:02:16.226Z,55.60
2018-07-05T01:02:47.969Z,55.60
2018-07-05T01:03:19.692Z,55.60
2018-07-05T01:03:51.399Z,55.60
2018-07-05T01:04:23.123Z,55.60
2018-07-05T01:04:54.848Z,55.60
2018-07-05T01:05:26.689Z,55.60
2018-07-05T01:05:58.380Z,55.60
2018-07-05T01:06:30.101Z,55.50
2018-07-05T01:07:01.822Z,55.50
2018-07-05T01:07:33.564Z,55.50
2018-07-05T01:08:05.299Z,55.70
2018-07-05T01:08:37.014Z,55.50
2018-07-05T01:09:08.747Z,55.70
2018-07-05T01:09:40.467Z,55.60
2018-07-05T01:10:12.187Z,55.60
2018-07-05T01:10:43.909Z,55.60
2018-07-05T01:11:15.645Z,55.70
2018-07-05T01:11:47.384Z,55.70
2018-07-05T01:12:19.123Z,55.70
2018-07-05T01:13:22.874Z,55.70
2018-07-05T01:13:54.615Z,55.80
2018-07-05T01:14:26.334Z,55.70
2018-07-05T01:14:58.059Z,55.60
2018-07-05T01:15:29.814Z,55.60
2018-07-05T01:16:01.534Z,56.20
2018-07-05T01:16:33.291Z,55.50
2018-07-05T01:17:05.022Z,56.30
2018-07-05T01:17:36.742Z,55.50
2018-07-05T01:18:08.473Z,55.50
2018-07-05T01:18:40.194Z,55.50
2018-07-05T01:19:11.920Z,55.50
2018-07-05T01:19:43.653Z,55.40
2018-07-05T01:20:15.390Z,55.40
2018-07-05T01:20:47.123Z,55.50
2018-07-05T01:21:18.840Z,55.40
2018-07-05T01:21:50.578Z,55.50
2018-07-05T01:22:22.311Z,55.40
2018-07-05T01:22:54.154Z,55.40
2018-07-05T01:23:25.931Z,55.30
2018-07-05T01:23:57.649Z,55.30
2018-07-05T01:24:29.411Z,55.30
2018-07-05T01:25:01.192Z,55.30
2018-07-05T01:25:32.967Z,55.30
2018-07-05T01:26:04.710Z,55.20
2018-07-05T01:26:36.465Z,55.20
2018-07-05T01:27:08.177Z,55.20
2018-07-05T01:27:39.890Z,55.30
2018-07-05T01:28:11.645Z,55.20
2018-07-05T01:28:43.364Z,55.20
2018-07-05T01:29:15.094Z,55.20
2018-07-05T01:29:46.821Z,55.20
2018-07-05T01:30:18.546Z,55.20
2018-07-05T01:30:50.285Z,55.20
2018-07-05T01:31:22.008Z,55.20
2018-07-05T01:31:53.731Z,55.20
2018-07-05T01:32:25.461Z,55.20
2018-07-05T01:32:57.177Z,55.20
2018-07-05T01:33:28.909Z,55.20
2018-07-05T01:34:00.635Z,55.20
2018-07-05T01:34:32.356Z,55.30
2018-07-05T01:35:04.096Z,55.30
2018-07-05T01:35:35.814Z,55.30
2018-07-05T01:36:07.562Z,55.30
2018-07-05T01:36:39.345Z,55.30
2018-07-05T01:37:11.070Z,55.30
2018-07-05T01:37:42.817Z,55.30
2018-07-05T01:38:14.542Z,55.30
2018-07-05T01:38:46.262Z,55.30
2018-07-05T01:39:17.995Z,55.30
2018-07-05T01:39:49.715Z,55.40
2018-07-05T01:40:21.449Z,55.30
2018-07-05T01:40:53.163Z,55.30
2018-07-05T01:41:24.930Z,55.30
2018-07-05T01:41:56.714Z,55.40
2018-07-05T01:42:28.459Z,55.40
2018-07-05T01:43:00.174Z,55.40
2018-07-05T01:43:31.915Z,55.40
2018-07-05T01:44:03.642Z,55.40
2018-07-05T01:44:35.370Z,55.40
2018-07-05T01:45:07.107Z,55.30
2018-07-05T01:45:38.838Z,55.30
2018-07-05T01:46:10.657Z,55.40
2018-07-05T01:46:42.382Z,55.30
2018-07-05T01:47:14.134Z,55.30
2018-07-05T01:47:45.853Z,55.40
2018-07-05T01:48:17.579Z,55.40
2018-07-05T01:48:49.305Z,55.50
2018-07-05T01:49:21.031Z,55.50
2018-07-05T01:49:52.774Z,55.50
2018-07-05T01:50:24.486Z,55.60
2018-07-05T01:50:56.212Z,55.50
2018-07-05T01:51:27.964Z,55.50
2018-07-05T01:51:59.683Z,55.50
2018-07-05T01:52:31.422Z,55.50
2018-07-05T01:53:03.146Z,55.60
2018-07-05T01:53:34.873Z,55.60
2018-07-05T01:54:06.606Z,55.50
2018-07-05T01:54:38.346Z,55.70
2018-07-05T01:55:10.077Z,55.70
2018-07-05T01:55:41.850Z,55.70
2018-07-05T01:56:13.586Z,55.70
2018-07-05T01:56:45.325Z,55.70
2018-07-05T01:57:17.043Z,55.70
2018-07-05T01:57:48.775Z,55.70
2018-07-05T01:58:20.506Z,55.70
2018-07-05T01:58:52.227Z,55.70
2018-07-05T01:59:23.965Z,55.70
2018-07-05T01:59:55.883Z,55.80
2018-07-05T02:00:27.817Z,55.80
2018-07-05T02:00:59.543Z,55.80
2018-07-05T02:01:31.267Z,55.80
2018-07-05T02:02:03.057Z,55.80
2018-07-05T02:02:34.798Z,55.80
2018-07-05T02:03:06.541Z,55.80
2018-07-05T02:03:38.256Z,55.80
2018-07-05T02:04:09.978Z,55.80
2018-07-05T02:04:41.713Z,55.80
2018-07-05T02:05:13.448Z,56.40
2018-07-05T02:05:45.169Z,55.80
2018-07-05T02:06:16.905Z,55.80
2018-07-05T02:06:48.632Z,55.80
2018-07-05T02:07:20.361Z,55.70
2018-07-05T02:07:52.085Z,55.80
2018-07-05T02:08:23.814Z,55.70
2018-07-05T02:08:55.541Z,55.70
2018-07-05T02:09:27.297Z,55.70
2018-07-05T02:09:59.040Z,55.70
2018-07-05T02:10:30.787Z,55.70
2018-07-05T02:11:02.518Z,55.60
2018-07-05T02:11:34.249Z,55.60
2018-07-05T02:12:05.977Z,55.70
2018-07-05T02:12:37.708Z,55.60
2018-07-05T02:13:09.457Z,55.60
2018-07-05T02:13:41.189Z,55.50
2018-07-05T02:14:12.925Z,55.50
2018-07-05T02:14:44.648Z,55.50
2018-07-05T02:15:16.390Z,55.50
2018-07-05T02:16:20.198Z,55.40
2018-07-05T02:16:52.106Z,55.40
2018-07-05T02:17:23.831Z,55.30
2018-07-05T02:17:55.567Z,55.30
2018-07-05T02:18:27.303Z,55.30
2018-07-05T02:18:59.019Z,55.30
2018-07-05T02:20:02.878Z,56.00
2018-07-05T02:20:34.608Z,55.40
2018-07-05T02:21:06.362Z,55.40
2018-07-05T02:21:38.097Z,55.30
2018-07-05T02:22:09.814Z,55.30
2018-07-05T02:22:41.549Z,55.20
2018-07-05T02:23:13.277Z,55.20
2018-07-05T02:23:45.041Z,55.30
2018-07-05T02:24:16.749Z,55.20
2018-07-05T02:24:48.482Z,55.20
2018-07-05T02:25:20.227Z,55.20
2018-07-05T02:25:51.984Z,55.30
2018-07-05T02:26:23.750Z,55.30
2018-07-05T02:26:55.461Z,55.30
2018-07-05T02:27:27.209Z,55.30
2018-07-05T02:27:58.934Z,55.20
2018-07-05T02:28:30.668Z,55.20
2018-07-05T02:29:02.434Z,55.20
2018-07-05T02:29:34.195Z,55.30
2018-07-05T02:30:05.926Z,55.30
2018-07-05T02:30:37.636Z,55.30
2018-07-05T02:31:09.391Z,55.30
2018-07-05T02:31:41.310Z,55.40
2018-07-05T02:32:13.028Z,55.40
2018-07-05T02:32:44.791Z,55.40
2018-07-05T02:33:16.518Z,55.40
2018-07-05T02:33:48.241Z,55.40
2018-07-05T02:34:19.972Z,55.40
2018-07-05T02:34:51.706Z,55.30
2018-07-05T02:35:23.521Z,55.30
2018-07-05T02:35:55.235Z,55.30
2018-07-05T02:36:26.954Z,55.30
2018-07-05T02:36:58.718Z,55.30
2018-07-05T02:37:30.438Z,55.20
2018-07-05T02:38:02.169Z,55.20
2018-07-05T02:38:33.904Z,55.30
2018-07-05T02:39:05.629Z,55.20
2018-07-05T02:39:37.349Z,55.20
2018-07-05T02:40:09.077Z,55.20
2018-07-05T02:40:40.814Z,55.20
2018-07-05T02:41:12.536Z,55.20
2018-07-05T02:41:44.265Z,55.20
2018-07-05T02:42:16.202Z,55.20
2018-07-05T02:42:47.917Z,55.20
2018-07-05T02:43:19.657Z,55.10
2018-07-05T02:43:51.383Z,55.20
2018-07-05T02:44:23.133Z,55.20
2018-07-05T02:44:54.846Z,55.20
2018-07-05T02:45:26.814Z,55.20
2018-07-05T02:45:58.544Z,55.20
2018-07-05T02:46:30.279Z,55.10
2018-07-05T02:47:01.992Z,55.20
2018-07-05T02:47:33.788Z,55.20
2018-07-05T02:48:05.484Z,55.20
2018-07-05T02:48:37.220Z,55.10
2018-07-05T02:49:08.947Z,55.10
2018-07-05T02:49:40.690Z,55.10
2018-07-05T02:50:12.447Z,55.10
2018-07-05T02:50:44.181Z,55.10
2018-07-05T02:51:15.931Z,55.40
2018-07-05T02:51:47.663Z,55.10
2018-07-05T02:52:19.417Z,55.20
2018-07-05T02:52:51.131Z,55.10
2018-07-05T02:53:22.872Z,55.10
2018-07-05T02:53:54.813Z,55.10
2018-07-05T02:54:26.545Z,55.10
2018-07-05T02:54:58.269Z,55.10
2018-07-05T02:55:30.005Z,55.10
2018-07-05T02:56:02.001Z,55.10
2018-07-05T02:56:33.937Z,55.10
2018-07-05T02:57:05.654Z,55.20
2018-07-05T02:57:37.680Z,55.20
2018-07-05T02:58:09.437Z,55.20
2018-07-05T02:58:41.163Z,55.20
2018-07-05T02:59:12.886Z,55.20
2018-07-05T02:59:44.623Z,55.20
2018-07-05T03:00:16.349Z,55.10
2018-07-05T03:00:48.097Z,55.20
2018-07-05T03:01:19.814Z,55.20
2018-07-05T03:01:51.596Z,55.20
2018-07-05T03:02:23.475Z,55.20
2018-07-05T03:02:55.227Z,55.20
2018-07-05T03:03:26.958Z,55.20
2018-07-05T03:03:58.689Z,55.20
2018-07-05T03:04:30.406Z,55.10
2018-07-05T03:05:02.125Z,55.20
2018-07-05T03:05:33.842Z,55.20
2018-07-05T03:06:05.580Z,55.20
2018-07-05T03:06:37.311Z,55.20
2018-07-05T03:07:09.066Z,55.20
2018-07-05T03:07:40.787Z,55.20
2018-07-05T03:08:12.531Z,55.20
2018-07-05T03:08:44.268Z,55.30
2018-07-05T03:09:16.005Z,55.20
2018-07-05T03:09:47.767Z,55.30
2018-07-05T03:10:19.713Z,55.40
2018-07-05T03:10:51.440Z,55.40
2018-07-05T03:11:23.166Z,55.40
2018-07-05T03:11:55.319Z,55.50
2018-07-05T03:12:27.030Z,55.60
2018-07-05T03:12:58.747Z,55.60
2018-07-05T03:13:30.471Z,55.60
2018-07-05T03:14:02.474Z,55.60
2018-07-05T03:14:34.228Z,55.70
2018-07-05T03:15:05.922Z,55.70
2018-07-05T03:15:37.650Z,55.70
2018-07-05T03:16:09.372Z,55.70
2018-07-05T03:16:41.098Z,55.70
2018-07-05T03:17:12.842Z,55.70
2018-07-05T03:17:44.575Z,55.80
2018-07-05T03:18:16.294Z,56.10
2018-07-05T03:18:48.018Z,55.70
2018-07-05T03:19:19.762Z,55.70
2018-07-05T03:19:51.490Z,55.70
2018-07-05T03:20:23.233Z,55.60
2018-07-05T03:20:54.975Z,55.70
2018-07-05T03:21:26.692Z,55.60
2018-07-05T03:21:58.451Z,55.70
2018-07-05T03:22:30.174Z,55.60
2018-07-05T03:23:01.927Z,55.60
2018-07-05T03:23:33.637Z,55.60
2018-07-05T03:24:05.386Z,55.50
2018-07-05T03:24:37.095Z,55.50
2018-07-05T03:25:08.901Z,55.50
2018-07-05T03:25:40.637Z,55.50
2018-07-05T03:26:12.353Z,55.20
2018-07-05T03:26:44.090Z,55.50
2018-07-05T03:27:15.844Z,55.50
2018-07-05T03:27:47.549Z,55.50
2018-07-05T03:28:19.282Z,55.50
2018-07-05T03:28:51.065Z,55.50
2018-07-05T03:29:22.785Z,55.50
2018-07-05T03:29:54.514Z,55.60
2018-07-05T03:30:26.257Z,55.50
2018-07-05T03:30:58.000Z,55.50
2018-07-05T03:31:29.719Z,55.60
2018-07-05T03:32:01.526Z,55.80
2018-07-05T03:32:33.211Z,55.60
2018-07-05T03:33:04.936Z,55.60
2018-07-05T03:33:36.675Z,55.70
2018-07-05T03:34:08.501Z,55.70
2018-07-05T03:34:40.207Z,55.70
2018-07-05T03:35:11.926Z,55.70
2018-07-05T03:35:43.661Z,55.70
2018-07-05T03:36:15.478Z,55.70
2018-07-05T03:36:47.174Z,55.70
2018-07-05T03:37:18.917Z,55.70
2018-07-05T03:37:50.636Z,55.70
2018-07-05T03:38:22.358Z,55.70
2018-07-05T03:38:54.139Z,55.70
2018-07-05T03:39:25.975Z,55.70
2018-07-05T03:39:57.722Z,55.70
2018-07-05T03:40:29.447Z,55.60
2018-07-05T03:41:01.171Z,55.50
2018-07-05T03:41:32.903Z,55.60
2018-07-05T03:42:04.618Z,55.50
2018-07-05T03:42:36.347Z,55.50
2018-07-05T03:43:08.089Z,55.40
2018-07-05T03:43:39.824Z,55.30
2018-07-05T03:44:11.597Z,55.30
2018-07-05T03:44:43.311Z,55.30
2018-07-05T03:45:15.042Z,55.30
2018-07-05T03:45:46.776Z,55.30
2018-07-05T03:46:18.520Z,55.20
2018-07-05T03:46:50.247Z,55.20
2018-07-05T03:47:22.065Z,55.20
2018-07-05T03:47:53.784Z,55.20
2018-07-05T03:48:25.504Z,55.20
2018-07-05T03:48:57.273Z,55.20
2018-07-05T03:49:29.179Z,55.30
2018-07-05T03:50:00.891Z,55.30
2018-07-05T03:50:32.629Z,55.30
2018-07-05T03:51:04.346Z,55.30
2018-07-05T03:51:36.108Z,55.40
2018-07-05T03:52:08.002Z,55.30
2018-07-05T03:52:39.781Z,55.30
2018-07-05T03:53:11.510Z,55.30
2018-07-05T03:53:43.250Z,55.30
2018-07-05T03:54:14.989Z,55.30
2018-07-05T03:54:46.718Z,55.20
2018-07-05T03:55:18.438Z,55.30
2018-07-05T03:55:50.165Z,55.20
2018-07-05T03:56:21.906Z,55.50
2018-07-05T03:56:53.639Z,55.30
2018-07-05T03:57:25.383Z,55.30
2018-07-05T03:57:57.114Z,55.30
2018-07-05T03:58:28.858Z,55.30
2018-07-05T03:59:00.627Z,55.30
2018-07-05T03:59:32.344Z,55.30
2018-07-05T04:00:04.073Z,55.30
2018-07-05T04:00:35.800Z,55.30
2018-07-05T04:01:07.532Z,55.30
2018-07-05T04:01:39.266Z,55.30
2018-07-05T04:02:11.006Z,55.30
2018-07-05T04:02:42.795Z,55.20
2018-07-05T04:03:14.648Z,55.30
2018-07-05T04:03:46.378Z,55.30
2018-07-05T04:04:18.113Z,55.30
2018-07-05T04:04:49.839Z,55.40
2018-07-05T04:05:21.567Z,55.50
2018-07-05T04:05:53.297Z,55.50
2018-07-05T04:06:25.038Z,55.50
2018-07-05T04:06:56.817Z,55.40
2018-07-05T04:07:28.577Z,55.40
2018-07-05T04:08:00.316Z,55.40
2018-07-05T04:08:32.041Z,55.40
2018-07-05T04:09:03.800Z,55.40
2018-07-05T04:09:35.752Z,55.30
2018-07-05T04:10:07.529Z,55.70
2018-07-05T04:10:39.288Z,55.30
2018-07-05T04:11:11.009Z,55.20
2018-07-05T04:11:42.749Z,55.20
2018-07-05T04:12:14.505Z,55.20
2018-07-05T04:12:46.253Z,55.20
2018-07-05T04:13:17.991Z,55.30
2018-07-05T04:13:49.722Z,55.20
2018-07-05T04:14:21.453Z,55.10
2018-07-05T04:14:53.185Z,55.40
2018-07-05T04:15:25.017Z,55.30
2018-07-05T04:16:28.796Z,55.40
2018-07-05T04:17:00.539Z,56.00
2018-07-05T04:17:32.281Z,56.20
2018-07-05T04:18:04.039Z,56.30
2018-07-05T04:18:35.767Z,56.10
2018-07-05T04:19:07.533Z,56.20
2018-07-05T04:19:39.278Z,57.10
2018-07-05T04:20:11.024Z,57.90
2018-07-05T04:20:42.766Z,58.10
2018-07-05T04:21:14.489Z,58.20
2018-07-05T04:21:46.230Z,58.50
2018-07-05T04:22:17.951Z,58.20
2018-07-05T04:22:49.696Z,58.20
2018-07-05T04:23:21.417Z,58.40
2018-07-05T04:23:53.143Z,57.90
2018-07-05T04:24:24.875Z,58.20
2018-07-05T04:24:56.608Z,58.00
2018-07-05T04:25:28.515Z,58.30
2018-07-05T04:26:00.258Z,58.20
2018-07-05T04:26:31.994Z,58.70
2018-07-05T04:27:03.717Z,58.60
2018-07-05T04:27:35.502Z,58.50
2018-07-05T04:28:07.188Z,58.80
2018-07-05T04:28:38.938Z,58.80
2018-07-05T04:29:10.908Z,58.70
2018-07-05T04:29:42.635Z,58.50
2018-07-05T04:30:14.404Z,58.70
2018-07-05T04:30:46.122Z,58.10
2018-07-05T04:31:17.849Z,58.30
2018-07-05T04:31:49.571Z,58.30
2018-07-05T04:32:21.299Z,57.80
2018-07-05T04:32:53.121Z,57.80
2018-07-05T04:33:25.172Z,57.90
2018-07-05T04:33:56.921Z,57.20
2018-07-05T04:34:28.662Z,57.50
2018-07-05T04:35:00.383Z,57.30
2018-07-05T04:35:32.111Z,57.20
2018-07-05T04:36:03.828Z,57.50
2018-07-05T04:36:35.566Z,57.20
2018-07-05T04:37:07.312Z,57.10
2018-07-05T04:37:39.036Z,56.90
2018-07-05T04:38:42.769Z,56.70
2018-07-05T04:39:14.590Z,56.70
2018-07-05T04:39:46.312Z,56.70
2018-07-05T04:40:18.070Z,56.80
2018-07-05T04:40:49.839Z,56.80
2018-07-05T04:41:21.575Z,56.50
2018-07-05T04:41:53.387Z,56.30
2018-07-05T04:42:25.118Z,56.10
2018-07-05T04:42:56.845Z,56.40
2018-07-05T04:43:28.570Z,56.20
2018-07-05T04:44:00.295Z,55.90
2018-07-05T04:44:32.020Z,55.60
2018-07-05T04:45:03.759Z,55.80
2018-07-05T04:45:35.505Z,56.00
2018-07-05T04:46:07.218Z,56.10
2018-07-05T04:46:38.946Z,55.90
2018-07-05T04:47:10.662Z,55.80
2018-07-05T04:47:42.401Z,55.60
2018-07-05T04:48:14.137Z,55.60
2018-07-05T04:48:45.861Z,55.80
2018-07-05T04:49:49.634Z,55.90
2018-07-05T04:50:21.362Z,55.80
2018-07-05T04:50:53.082Z,56.00
2018-07-05T04:51:24.817Z,56.10
2018-07-05T04:51:56.541Z,56.20
2018-07-05T04:52:28.456Z,56.30
2018-07-05T04:53:00.178Z,56.40
2018-07-05T04:53:31.906Z,56.50
2018-07-05T04:54:03.674Z,56.40
2018-07-05T04:54:35.446Z,56.40
2018-07-05T04:55:07.182Z,56.30
2018-07-05T04:55:38.893Z,56.40
2018-07-05T04:56:10.618Z,56.20
2018-07-05T04:56:42.341Z,56.30
2018-07-05T04:57:14.104Z,56.30
2018-07-05T04:57:45.822Z,56.30
2018-07-05T04:58:17.547Z,56.40
2018-07-05T04:58:49.271Z,56.50
2018-07-05T04:59:21.062Z,56.50
2018-07-05T04:59:52.798Z,56.50
2018-07-05T05:00:56.489Z,56.70
2018-07-05T05:01:28.229Z,56.70
2018-07-05T05:01:59.970Z,56.80
2018-07-05T05:02:31.710Z,56.20
2018-07-05T05:03:03.652Z,56.80
2018-07-05T05:03:35.382Z,56.70
2018-07-05T05:04:07.110Z,56.70
2018-07-05T05:04:38.890Z,56.60
2018-07-05T05:05:10.603Z,56.60
2018-07-05T05:05:42.318Z,56.60
2018-07-05T05:06:14.060Z,56.50
2018-07-05T05:06:45.777Z,56.50
2018-07-05T05:07:17.497Z,56.30
2018-07-05T05:07:49.224Z,56.30
2018-07-05T05:08:20.950Z,56.20
2018-07-05T05:08:52.688Z,56.20
2018-07-05T05:09:24.417Z,56.20
2018-07-05T05:09:56.145Z,56.10
2018-07-05T05:10:27.890Z,56.10
2018-07-05T05:10:59.625Z,56.20
2018-07-05T05:11:31.382Z,56.00
2018-07-05T05:12:03.135Z,56.00
2018-07-05T05:12:34.881Z,55.90
2018-07-05T05:13:06.596Z,55.90
2018-07-05T05:13:38.335Z,55.90
2018-07-05T05:14:10.094Z,55.80
2018-07-05T05:14:41.829Z,55.90
2018-07-05T05:15:13.549Z,55.80
2018-07-05T05:15:45.272Z,55.70
2018-07-05T05:16:16.985Z,55.70
2018-07-05T05:16:48.717Z,55.80
2018-07-05T05:17:20.434Z,55.70
2018-07-05T05:17:52.164Z,56.20
2018-07-05T05:18:23.889Z,55.50
2018-07-05T05:18:55.662Z,55.50
2018-07-05T05:19:27.583Z,55.40
2018-07-05T05:19:59.306Z,55.50
2018-07-05T05:20:31.034Z,55.50
2018-07-05T05:21:02.749Z,55.40
2018-07-05T05:21:34.484Z,55.40
2018-07-05T05:22:06.208Z,55.30
2018-07-05T05:22:38.255Z,55.40
2018-07-05T05:23:09.953Z,55.30
2018-07-05T05:23:41.685Z,55.30
2018-07-05T05:24:13.461Z,55.30
2018-07-05T05:24:45.347Z,55.30
2018-07-05T05:25:17.073Z,55.20
2018-07-05T05:25:48.802Z,55.20
2018-07-05T05:26:20.511Z,55.20
2018-07-05T05:26:52.232Z,55.30
2018-07-05T05:27:23.954Z,55.10
2018-07-05T05:27:55.691Z,55.10
2018-07-05T05:28:27.443Z,55.00
2018-07-05T05:28:59.194Z,55.00
2018-07-05T05:29:30.983Z,54.70
2018-07-05T05:30:02.785Z,54.50
2018-07-05T05:30:34.637Z,54.90
2018-07-05T05:31:06.383Z,55.10
2018-07-05T05:31:38.136Z,55.10
2018-07-05T05:32:10.141Z,54.90
2018-07-05T05:32:41.875Z,55.00
2018-07-05T05:33:13.618Z,54.90
2018-07-05T05:33:45.348Z,55.00
2018-07-05T05:34:17.074Z,54.90
2018-07-05T05:34:48.814Z,54.90
2018-07-05T05:35:20.537Z,54.80
2018-07-05T05:35:52.256Z,54.80
2018-07-05T05:36:23.992Z,54.80
2018-07-05T05:36:55.728Z,54.80
2018-07-05T05:37:27.452Z,54.80
2018-07-05T05:37:59.205Z,54.80
2018-07-05T05:38:30.913Z,54.80
2018-07-05T05:39:02.674Z,54.70
2018-07-05T05:39:34.835Z,54.70
2018-07-05T05:40:06.558Z,54.70
2018-07-05T05:40:38.282Z,54.70
2018-07-05T05:41:10.011Z,54.60
2018-07-05T05:41:41.939Z,54.60
2018-07-05T05:42:13.673Z,54.60
2018-07-05T05:42:45.385Z,54.60
2018-07-05T05:43:17.111Z,54.60
2018-07-05T05:43:48.843Z,54.90
2018-07-05T05:44:20.566Z,55.30
2018-07-05T05:44:52.300Z,54.80
2018-07-05T05:45:24.039Z,54.60
2018-07-05T05:45:55.774Z,54.60
2018-07-05T05:46:27.511Z,54.70
2018-07-05T05:46:59.242Z,54.80
2018-07-05T05:47:30.963Z,54.80
2018-07-05T05:48:02.684Z,54.60
2018-07-05T05:48:34.610Z,54.60
2018-07-05T05:49:06.348Z,54.80
2018-07-05T05:49:38.088Z,54.80
2018-07-05T05:50:09.803Z,54.70
2018-07-05T05:50:41.533Z,54.70
2018-07-05T05:51:13.256Z,54.70
2018-07-05T05:51:44.986Z,54.80
2018-07-05T05:52:16.732Z,54.70
2018-07-05T05:52:48.453Z,54.60
2018-07-05T05:53:20.193Z,54.70
2018-07-05T05:53:51.921Z,54.60
2018-07-05T05:54:23.654Z,54.60
2018-07-05T05:54:55.385Z,55.30
2018-07-05T05:55:27.130Z,55.20
2018-07-05T05:55:58.868Z,55.10
2018-07-05T05:56:30.573Z,54.70
2018-07-05T05:57:02.322Z,54.70
2018-07-05T05:57:34.056Z,54.60
2018-07-05T05:58:05.979Z,54.70
2018-07-05T05:58:37.718Z,54.70
2018-07-05T05:59:09.433Z,54.70
2018-07-05T05:59:41.202Z,54.70
2018-07-05T06:00:12.934Z,54.60
2018-07-05T06:00:44.660Z,54.70
2018-07-05T06:01:16.394Z,54.80
2018-07-05T06:01:48.205Z,54.60
2018-07-05T06:02:20.082Z,54.50
2018-07-05T06:02:51.814Z,54.60
2018-07-05T06:03:23.563Z,54.70
2018-07-05T06:03:55.295Z,54.50
2018-07-05T06:04:27.018Z,54.50
2018-07-05T06:04:58.749Z,54.50
2018-07-05T06:05:30.472Z,54.40
2018-07-05T06:06:02.198Z,54.40
2018-07-05T06:06:33.959Z,54.40
2018-07-05T06:07:05.678Z,54.40
2018-07-05T06:07:37.410Z,54.40
2018-07-05T06:08:09.222Z,54.50
2018-07-05T06:08:41.114Z,54.50
2018-07-05T06:09:12.840Z,54.50
2018-07-05T06:09:44.572Z,54.60
2018-07-05T06:10:16.292Z,54.60
2018-07-05T06:10:48.028Z,54.80
2018-07-05T06:11:19.753Z,54.70
2018-07-05T06:11:51.476Z,54.20
2018-07-05T06:12:23.214Z,54.70
2018-07-05T06:12:54.926Z,54.70
2018-07-05T06:13:26.671Z,54.80
2018-07-05T06:13:58.392Z,54.70
2018-07-05T06:14:30.116Z,54.70
2018-07-05T06:15:01.868Z,55.00
2018-07-05T06:15:33.603Z,55.00
2018-07-05T06:16:05.327Z,54.90
2018-07-05T06:16:37.109Z,54.90
2018-07-05T06:17:09.116Z,54.90
2018-07-05T06:17:41.013Z,54.90
2018-07-05T06:18:12.730Z,55.00
2018-07-05T06:18:44.538Z,54.90
2018-07-05T06:19:16.399Z,54.90
2018-07-05T06:19:48.148Z,55.00
2018-07-05T06:20:19.897Z,55.00
2018-07-05T06:20:51.636Z,55.00
2018-07-05T06:21:23.370Z,54.90
2018-07-05T06:21:55.486Z,54.90
2018-07-05T06:22:27.178Z,55.70
2018-07-05T06:22:58.919Z,55.00
2018-07-05T06:23:30.681Z,55.00
2018-07-05T06:24:02.405Z,55.10
2018-07-05T06:24:34.151Z,54.90
2018-07-05T06:25:05.910Z,55.00
2018-07-05T06:25:37.678Z,55.00
2018-07-05T06:26:09.578Z,54.90
2018-07-05T06:26:41.307Z,55.00
2018-07-05T06:27:13.041Z,55.10
2018-07-05T06:27:44.782Z,55.10
2018-07-05T06:28:16.509Z,55.00
2018-07-05T06:28:48.233Z,55.00
2018-07-05T06:29:19.963Z,55.10
2018-07-05T06:29:51.695Z,55.20
2018-07-05T06:30:23.431Z,55.20
2018-07-05T06:30:55.150Z,55.00
2018-07-05T06:31:26.935Z,55.00
2018-07-05T06:31:58.665Z,55.00
2018-07-05T06:32:30.395Z,54.90
2018-07-05T06:33:02.146Z,55.00
2018-07-05T06:33:33.868Z,55.10
2018-07-05T06:34:05.630Z,55.10
2018-07-05T06:34:37.553Z,55.00
2018-07-05T06:35:09.308Z,55.00
2018-07-05T06:35:41.039Z,55.00
2018-07-05T06:36:12.778Z,55.00
2018-07-05T06:36:44.489Z,55.10
2018-07-05T06:37:16.228Z,55.10
2018-07-05T06:37:47.960Z,55.00
2018-07-05T06:38:19.692Z,55.60
2018-07-05T06:38:51.406Z,55.40
2018-07-05T06:39:23.128Z,55.30
2018-07-05T06:39:54.861Z,55.30
2018-07-05T06:40:26.594Z,55.40
2018-07-05T06:40:58.335Z,55.50
2018-07-05T06:41:30.075Z,55.50
2018-07-05T06:42:01.799Z,55.50
2018-07-05T06:42:33.541Z,55.30
2018-07-05T06:43:05.257Z,55.30
2018-07-05T06:43:36.994Z,55.20
2018-07-05T06:44:08.718Z,55.30
2018-07-05T06:44:40.441Z,55.80
2018-07-05T06:45:12.172Z,55.10
2018-07-05T06:45:43.905Z,55.30
2018-07-05T06:46:15.632Z,55.10
2018-07-05T06:46:47.353Z,55.10
2018-07-05T06:47:19.094Z,55.20
2018-07-05T06:47:50.803Z,55.10
2018-07-05T06:48:22.536Z,55.10
2018-07-05T06:48:54.275Z,55.20
2018-07-05T06:49:26.141Z,55.20
2018-07-05T06:49:58.024Z,55.20
2018-07-05T06:50:29.766Z,55.40
2018-07-05T06:51:01.497Z,55.30
2018-07-05T06:51:33.396Z,55.40
2018-07-05T06:52:05.126Z,55.50
2018-07-05T06:52:36.867Z,55.30
2018-07-05T06:53:08.646Z,55.30
2018-07-05T06:53:40.547Z,55.40